createdAt,value
2023-04-15T00:01:37.254Z,9.93
2023-04-15T00:04:04.713Z,10.48
2023-04-15T00:06:31.380Z,11.00
2023-04-15T00:08:58.019Z,10.25
2023-04-15T00:11:24.576Z,10.93
2023-04-15T00:13:51.219Z,10.98
2023-04-15T00:16:17.736Z,10.70
2023-04-15T00:18:44.274Z,12.25
2023-04-15T00:21:10.746Z,11.38
2023-04-15T00:23:37.197Z,17.85
2023-04-15T00:26:03.637Z,10.32
2023-04-15T00:28:31.018Z,9.93
2023-04-15T00:30:57.689Z,10.23
2023-04-15T00:33:24.471Z,10.15
2023-04-15T00:35:50.971Z,11.85
2023-04-15T00:38:17.768Z,9.50
2023-04-15T00:40:44.263Z,12.07
2023-04-15T00:43:10.854Z,10.48
2023-04-15T00:45:38.351Z,10.18
2023-04-15T00:48:05.636Z,9.95
2023-04-15T00:50:32.830Z,11.32
2023-04-15T00:52:59.296Z,10.85
2023-04-15T00:55:25.889Z,11.10
2023-04-15T00:57:52.675Z,10.27
2023-04-15T01:00:20.192Z,11.20
2023-04-15T01:02:47.198Z,11.07
2023-04-15T01:05:13.923Z,10.55
2023-04-15T01:07:40.383Z,11.25
2023-04-15T01:10:08.152Z,10.77
2023-04-15T01:12:35.216Z,10.40
2023-04-15T01:15:02.253Z,11.75
2023-04-15T01:17:28.799Z,11.65
2023-04-15T01:19:56.634Z,11.73
2023-04-15T01:22:23.859Z,11.57
2023-04-15T01:25:04.741Z,12.30
2023-04-15T01:27:31.403Z,12.45
2023-04-15T01:29:58.406Z,11.52
2023-04-15T01:32:25.104Z,10.60
2023-04-15T01:34:52.082Z,11.00
2023-04-15T01:37:18.569Z,9.65
2023-04-15T01:39:45.531Z,11.23
2023-04-15T01:42:12.341Z,10.20
2023-04-15T01:44:38.861Z,10.38
2023-04-15T01:47:05.638Z,11.07
2023-04-15T01:49:32.594Z,11.13
2023-04-15T01:52:00.747Z,10.80
2023-04-15T01:54:27.578Z,11.20
2023-04-15T01:56:54.042Z,10.77
2023-04-15T01:59:20.911Z,11.15
2023-04-15T02:01:47.416Z,10.68
2023-04-15T02:04:16.641Z,11.07
2023-04-15T02:06:43.799Z,11.40
2023-04-15T02:09:10.569Z,10.52
2023-04-15T02:11:37.526Z,10.80
2023-04-15T02:14:05.691Z,11.68
2023-04-15T02:16:32.822Z,10.93
2023-04-15T02:19:00.141Z,11.30
2023-04-15T02:21:27.293Z,11.10
2023-04-15T02:23:57.107Z,11.90
2023-04-15T02:26:25.044Z,11.10
2023-04-15T02:28:53.587Z,11.38
2023-04-15T02:31:21.224Z,11.20
2023-04-15T02:33:47.718Z,11.20
2023-04-15T02:36:14.550Z,10.52
2023-04-15T02:38:42.920Z,11.63
2023-04-15T02:41:10.430Z,10.38
2023-04-15T02:43:39.871Z,11.00
2023-04-15T02:46:08.232Z,11.30
2023-04-15T02:48:34.752Z,11.20
2023-04-15T02:51:14.492Z,10.98
2023-04-15T02:53:41.538Z,10.68
2023-04-15T02:56:08.426Z,11.13
2023-04-15T02:58:35.940Z,10.32
2023-04-15T03:01:02.597Z,11.45
2023-04-15T03:03:29.238Z,10.90
2023-04-15T03:05:55.801Z,10.40
2023-04-15T03:08:22.578Z,10.23
2023-04-15T03:10:49.406Z,10.13
2023-04-15T03:13:16.545Z,10.57
2023-04-15T03:15:43.854Z,10.02
2023-04-15T03:18:10.805Z,10.77
2023-04-15T03:20:37.270Z,10.57
2023-04-15T03:23:03.924Z,10.88
2023-04-15T03:25:30.535Z,11.25
2023-04-15T03:27:57.141Z,10.60
2023-04-15T03:30:23.683Z,11.68
2023-04-15T03:32:51.051Z,10.93
2023-04-15T03:35:18.591Z,11.50
2023-04-15T03:37:45.125Z,10.52
2023-04-15T03:40:12.038Z,13.70
2023-04-15T03:42:38.557Z,11.13
2023-04-15T03:45:05.682Z,13.32
2023-04-15T03:47:32.183Z,11.10
2023-04-15T03:49:58.662Z,11.10
2023-04-15T03:52:25.572Z,11.35
2023-04-15T03:54:52.312Z,11.80
2023-04-15T03:57:18.757Z,13.30
2023-04-15T03:59:45.294Z,13.45
2023-04-15T04:02:11.814Z,12.88
2023-04-15T04:04:38.386Z,14.45
2023-04-15T04:07:04.874Z,13.32
2023-04-15T04:09:31.606Z,12.70
2023-04-15T04:11:58.084Z,12.38
2023-04-15T04:14:29.450Z,12.07
2023-04-15T04:16:56.725Z,11.60
2023-04-15T04:19:23.240Z,12.13
2023-04-15T04:21:49.702Z,12.52
2023-04-15T04:24:16.402Z,12.13
2023-04-15T04:26:42.904Z,11.25
2023-04-15T04:29:09.408Z,12.32
2023-04-15T04:31:36.442Z,11.10
2023-04-15T04:34:02.979Z,12.20
2023-04-15T04:36:29.443Z,10.88
2023-04-15T04:38:56.207Z,10.38
2023-04-15T04:41:22.702Z,10.15
2023-04-15T04:43:49.198Z,10.40
2023-04-15T04:46:15.990Z,10.35
2023-04-15T04:48:42.479Z,10.68
2023-04-15T04:51:09.433Z,8.77
2023-04-15T04:53:37.672Z,9.82
2023-04-15T04:56:04.539Z,9.55
2023-04-15T04:58:31.058Z,9.30
2023-04-15T05:00:58.416Z,9.77
2023-04-15T05:03:25.159Z,6.30
2023-04-15T05:05:51.812Z,8.88
2023-04-15T05:08:18.252Z,6.32
2023-04-15T05:10:44.754Z,6.40
2023-04-15T05:13:11.481Z,6.25
2023-04-15T05:15:39.860Z,5.47
2023-04-15T05:18:06.533Z,5.95
2023-04-15T05:20:33.038Z,5.22
2023-04-15T05:22:59.514Z,5.85
2023-04-15T05:25:26.089Z,6.00
2023-04-15T05:27:52.527Z,8.15
2023-04-15T05:30:22.177Z,6.18
2023-04-15T05:32:48.660Z,5.90
2023-04-15T05:35:15.194Z,6.25
2023-04-15T05:37:42.134Z,5.63
2023-04-15T05:40:10.504Z,5.60
2023-04-15T05:42:37.199Z,6.30
2023-04-15T05:45:05.549Z,6.28
2023-04-15T05:47:32.276Z,6.53
2023-04-15T05:49:59.155Z,7.50
2023-04-15T05:52:25.673Z,6.68
2023-04-15T05:54:52.120Z,6.85
2023-04-15T05:57:18.606Z,6.65
2023-04-15T05:59:45.072Z,6.95
2023-04-15T06:02:11.758Z,6.95
2023-04-15T06:04:39.444Z,6.95
2023-04-15T06:07:06.193Z,7.28
2023-04-15T06:09:32.624Z,6.90
2023-04-15T06:11:59.444Z,7.63
2023-04-15T06:14:26.252Z,5.90
2023-04-15T06:16:52.836Z,6.90
2023-04-15T06:19:19.434Z,7.70
2023-04-15T06:21:46.352Z,7.07
2023-04-15T06:24:12.821Z,6.88
2023-04-15T06:26:39.269Z,7.00
2023-04-15T06:29:05.812Z,7.95
2023-04-15T06:31:32.381Z,6.30
2023-04-15T06:33:58.838Z,6.78
2023-04-15T06:36:25.342Z,7.05
2023-04-15T06:38:51.852Z,6.20
2023-04-15T06:41:18.356Z,6.85
2023-04-15T06:43:44.845Z,6.57
2023-04-15T06:46:11.567Z,6.30
2023-04-15T06:48:38.069Z,5.82
2023-04-15T06:51:04.603Z,6.03
2023-04-15T06:53:31.107Z,5.55
2023-04-15T06:55:57.581Z,5.97
2023-04-15T06:58:24.047Z,5.22
2023-04-15T07:00:51.086Z,4.90
2023-04-15T07:03:17.805Z,4.60
2023-04-15T07:05:44.810Z,4.90
2023-04-15T07:08:11.249Z,4.80
2023-04-15T07:10:38.155Z,4.95
2023-04-15T07:13:04.676Z,5.80
2023-04-15T07:15:31.149Z,5.22
2023-04-15T07:17:57.660Z,5.40
2023-04-15T07:20:24.151Z,5.10
2023-04-15T07:22:50.625Z,5.22
2023-04-15T07:25:17.711Z,5.18
2023-04-15T07:27:44.201Z,5.60
2023-04-15T07:30:11.049Z,5.43
2023-04-15T07:32:37.732Z,6.93
2023-04-15T07:35:04.785Z,5.95
2023-04-15T07:37:31.362Z,6.22
2023-04-15T07:39:58.058Z,6.30
2023-04-15T07:42:24.586Z,5.78
2023-04-15T07:44:52.010Z,6.30
2023-04-15T07:47:18.590Z,6.13
2023-04-15T07:49:45.194Z,5.80
2023-04-15T07:52:11.680Z,6.03
2023-04-15T07:54:38.118Z,6.00
2023-04-15T07:57:04.690Z,7.45
2023-04-15T07:59:33.360Z,7.22
2023-04-15T08:01:59.867Z,7.97
2023-04-15T08:04:26.396Z,7.28
2023-04-15T08:06:53.423Z,7.05
2023-04-15T08:09:19.975Z,8.20
2023-04-15T08:11:48.807Z,7.40
2023-04-15T08:14:15.476Z,7.32
2023-04-15T08:16:42.412Z,8.68
2023-04-15T08:19:09.313Z,7.43
2023-04-15T08:21:36.527Z,7.47
2023-04-15T08:24:03.366Z,7.57
2023-04-15T08:26:29.879Z,6.38
2023-04-15T08:28:56.468Z,6.22
2023-04-15T08:31:22.998Z,6.57
2023-04-15T08:33:51.992Z,7.85
2023-04-15T08:36:18.951Z,6.95
2023-04-15T08:38:45.633Z,7.93
2023-04-15T08:41:20.236Z,6.65
2023-04-15T08:43:57.488Z,6.97
2023-04-15T08:46:24.266Z,8.20
2023-04-15T08:48:50.887Z,7.15
2023-04-15T08:51:18.010Z,7.70
2023-04-15T08:53:46.508Z,7.80
2023-04-15T08:56:14.434Z,7.82
2023-04-15T08:58:41.574Z,9.80
2023-04-15T09:01:08.386Z,12.70
2023-04-15T09:03:35.343Z,13.02
2023-04-15T09:06:04.613Z,10.10
2023-04-15T09:08:31.581Z,12.55
2023-04-15T09:10:58.040Z,14.10
2023-04-15T09:13:24.516Z,16.75
2023-04-15T09:15:51.101Z,23.92
2023-04-15T09:18:29.628Z,19.48
2023-04-15T09:20:56.994Z,22.33
2023-04-15T09:23:23.604Z,20.27
2023-04-15T09:25:50.508Z,22.58
2023-04-15T09:28:24.206Z,33.47
2023-04-15T09:30:58.732Z,46.45
2023-04-15T09:33:29.012Z,39.53
2023-04-15T09:36:03.581Z,24.63
2023-04-15T09:38:30.077Z,23.38
2023-04-15T09:40:57.153Z,26.45
2023-04-15T09:43:23.946Z,26.85
2023-04-15T09:45:53.023Z,31.25
2023-04-15T09:48:21.537Z,31.90
2023-04-15T09:50:49.415Z,36.03
2023-04-15T09:53:20.325Z,30.33
2023-04-15T09:55:55.092Z,30.48
2023-04-15T09:58:23.534Z,24.60
2023-04-15T10:00:51.636Z,30.80
2023-04-15T10:03:21.667Z,32.28
2023-04-15T10:05:50.724Z,27.05
2023-04-15T10:08:25.172Z,28.15
2023-04-15T10:10:52.436Z,32.70
2023-04-15T10:13:22.372Z,38.97
2023-04-15T10:15:57.674Z,32.58
2023-04-15T10:18:26.987Z,40.55
2023-04-15T10:20:54.127Z,38.13
2023-04-15T10:23:22.346Z,37.92
2023-04-15T10:25:54.377Z,57.70
2023-04-15T10:28:22.883Z,52.80
2023-04-15T10:30:49.990Z,64.05
2023-04-15T10:33:23.992Z,63.03
2023-04-15T10:38:34.031Z,50.65
2023-04-15T10:41:21.183Z,56.45
2023-04-15T10:43:52.766Z,60.17
2023-04-15T10:46:23.906Z,52.38
2023-04-15T10:48:52.362Z,65.07
2023-04-15T10:51:29.928Z,53.78
2023-04-15T10:53:58.110Z,47.75
2023-04-15T10:56:24.578Z,43.60
2023-04-15T10:58:51.155Z,50.80
2023-04-15T11:01:20.045Z,52.75
2023-04-15T11:03:46.901Z,49.38
2023-04-15T11:06:13.560Z,57.00
2023-04-15T11:08:59.554Z,40.97
2023-04-15T11:12:10.479Z,43.45
2023-04-15T11:14:41.657Z,44.17
2023-04-15T11:17:08.207Z,42.03
2023-04-15T11:19:38.989Z,45.83
2023-04-15T11:22:12.198Z,37.85
2023-04-15T11:24:48.408Z,33.53
2023-04-15T11:27:24.104Z,34.67
2023-04-15T11:29:50.703Z,37.28
2023-04-15T11:32:17.275Z,37.03
2023-04-15T11:34:46.117Z,38.45
2023-04-15T11:37:12.981Z,36.15
2023-04-15T11:39:39.432Z,37.47
2023-04-15T11:42:16.978Z,32.83
2023-04-15T11:44:43.416Z,32.90
2023-04-15T11:47:23.641Z,33.63
2023-04-15T11:49:50.106Z,33.45
2023-04-15T11:52:16.580Z,37.42
2023-04-15T11:54:43.044Z,32.20
2023-04-15T11:57:09.498Z,33.47
2023-04-15T11:59:45.189Z,31.80
2023-04-15T12:02:13.542Z,30.70
2023-04-15T12:04:40.499Z,33.90
2023-04-15T12:07:07.558Z,30.48
2023-04-15T12:09:37.980Z,29.48
2023-04-15T12:12:04.422Z,26.52
2023-04-15T12:14:34.296Z,33.35
2023-04-15T12:17:03.356Z,32.25
2023-04-15T12:19:34.740Z,29.52
2023-04-15T12:22:04.270Z,28.85
2023-04-15T12:24:35.838Z,28.73
2023-04-15T12:27:07.090Z,28.27
2023-04-15T12:29:34.917Z,28.00
2023-04-15T12:32:07.274Z,31.25
2023-04-15T12:34:35.821Z,25.75
2023-04-15T12:37:04.068Z,27.30
2023-04-15T12:39:32.595Z,29.60
2023-04-15T12:42:00.344Z,22.85
2023-04-15T12:44:28.035Z,23.27
2023-04-15T12:46:54.908Z,23.63
2023-04-15T12:49:22.403Z,21.75
2023-04-15T12:51:50.298Z,26.67
2023-04-15T12:54:17.663Z,22.75
2023-04-15T12:56:46.060Z,26.67
2023-04-15T12:59:13.051Z,22.80
2023-04-15T13:01:40.117Z,21.98
2023-04-15T13:04:07.389Z,24.67
2023-04-15T13:06:34.497Z,21.42
2023-04-15T13:09:02.340Z,20.48
2023-04-15T13:11:33.783Z,24.35
2023-04-15T13:14:01.917Z,23.55
2023-04-15T13:16:28.718Z,22.45
2023-04-15T13:18:55.425Z,19.15
2023-04-15T13:21:21.918Z,17.95
2023-04-15T13:23:50.356Z,18.17
2023-04-15T13:26:17.786Z,15.73
2023-04-15T13:28:44.367Z,15.85
2023-04-15T13:31:10.881Z,15.65
2023-04-15T13:33:37.591Z,17.25
2023-04-15T13:36:04.116Z,16.08
2023-04-15T13:38:30.586Z,15.75
2023-04-15T13:40:57.047Z,17.45
2023-04-15T13:43:23.530Z,18.20
2023-04-15T13:45:50.099Z,17.85
2023-04-15T13:48:17.035Z,16.90
2023-04-15T13:50:45.369Z,20.33
2023-04-15T13:53:12.581Z,20.65
2023-04-15T13:55:42.713Z,21.67
2023-04-15T13:58:09.764Z,24.40
2023-04-15T14:00:36.303Z,24.50
2023-04-15T14:03:02.932Z,23.92
2023-04-15T14:05:29.602Z,22.33
2023-04-15T14:07:56.063Z,23.73
2023-04-15T14:10:22.548Z,22.92
2023-04-15T14:12:48.995Z,24.73
2023-04-15T14:15:15.670Z,24.67
2023-04-15T14:17:42.530Z,23.20
2023-04-15T14:20:09.667Z,24.02
2023-04-15T14:22:36.217Z,26.27
2023-04-15T14:25:02.741Z,26.00
2023-04-15T14:27:29.246Z,25.55
2023-04-15T14:29:55.715Z,23.70
2023-04-15T14:32:22.209Z,21.70
2023-04-15T14:34:48.666Z,22.30
2023-04-15T14:37:15.150Z,21.67
2023-04-15T14:39:41.599Z,20.58
2023-04-15T14:42:08.087Z,21.92
2023-04-15T14:44:34.688Z,21.88
2023-04-15T14:47:04.009Z,22.27
2023-04-15T14:49:30.633Z,21.67
2023-04-15T14:51:57.078Z,19.70
2023-04-15T14:54:23.568Z,20.73
2023-04-15T14:56:50.113Z,21.00
2023-04-15T14:59:16.666Z,20.55
2023-04-15T15:01:43.197Z,23.67
2023-04-15T15:04:10.876Z,22.45
2023-04-15T15:06:37.427Z,21.45
2023-04-15T15:09:04.702Z,22.55
2023-04-15T15:11:31.755Z,21.30
2023-04-15T15:13:58.471Z,21.75
2023-04-15T15:16:28.712Z,21.90
2023-04-15T15:18:55.432Z,21.30
2023-04-15T15:21:21.912Z,22.67
2023-04-15T15:23:48.508Z,21.75
2023-04-15T15:26:15.348Z,20.48
2023-04-15T15:28:42.231Z,20.13
2023-04-15T15:31:08.945Z,19.45
2023-04-15T15:33:35.545Z,19.00
2023-04-15T15:36:03.498Z,19.58
2023-04-15T15:38:29.965Z,18.45
2023-04-15T15:40:56.424Z,17.83
2023-04-15T15:43:23.242Z,20.35
2023-04-15T15:45:51.784Z,18.63
2023-04-15T15:48:18.641Z,18.98
2023-04-15T15:50:45.835Z,19.55
2023-04-15T15:53:17.790Z,20.30
2023-04-15T15:55:44.240Z,20.20
2023-04-15T15:58:10.966Z,20.58
2023-04-15T16:00:37.491Z,18.98
2023-04-15T16:03:07.361Z,18.75
2023-04-15T16:05:35.369Z,17.33
2023-04-15T16:08:02.028Z,16.75
2023-04-15T16:10:28.885Z,17.08
2023-04-15T16:12:55.667Z,16.48
2023-04-15T16:15:23.892Z,18.13
2023-04-15T16:17:50.497Z,17.95
2023-04-15T16:20:17.080Z,19.20
2023-04-15T16:22:43.607Z,18.70
2023-04-15T16:25:10.527Z,22.48
2023-04-15T16:27:54.060Z,19.73
2023-04-15T16:30:23.469Z,19.52
2023-04-15T16:32:49.924Z,19.75
2023-04-15T16:35:16.841Z,20.40
2023-04-15T16:37:43.342Z,21.02
2023-04-15T16:40:10.211Z,19.90
2023-04-15T16:42:36.953Z,19.83
2023-04-15T16:45:03.573Z,21.60
2023-04-15T16:47:30.218Z,21.38
2023-04-15T16:49:56.725Z,20.85
2023-04-15T16:52:23.184Z,20.90
2023-04-15T16:54:49.730Z,22.45
2023-04-15T16:57:16.236Z,22.17
2023-04-15T16:59:42.704Z,22.65
2023-04-15T17:02:11.680Z,25.20
2023-04-15T17:04:38.387Z,26.08
2023-04-15T17:07:06.534Z,23.45
2023-04-15T17:09:33.020Z,26.05
2023-04-15T17:11:59.541Z,27.05
2023-04-15T17:14:27.603Z,24.67
2023-04-15T17:16:54.220Z,28.10
2023-04-15T17:19:20.675Z,26.92
2023-04-15T17:21:47.160Z,27.13
2023-04-15T17:24:13.731Z,27.17
2023-04-15T17:26:40.243Z,28.23
2023-04-15T17:29:07.012Z,28.08
2023-04-15T17:31:33.717Z,27.92
2023-04-15T17:34:05.649Z,30.50
2023-04-15T17:36:36.594Z,36.15
2023-04-15T17:39:03.457Z,32.15
2023-04-15T17:41:30.056Z,32.47
2023-04-15T17:43:56.553Z,28.80
2023-04-15T17:46:23.034Z,33.63
2023-04-15T17:48:49.577Z,28.98
2023-04-15T17:51:17.021Z,31.17
2023-04-15T17:53:43.528Z,28.15
2023-04-15T17:56:10.055Z,29.00
2023-04-15T17:58:36.540Z,26.98
2023-04-15T18:01:03.178Z,27.50
2023-04-15T18:03:29.955Z,26.77
2023-04-15T18:05:56.674Z,25.15
2023-04-15T18:08:23.388Z,29.20
2023-04-15T18:10:49.887Z,26.00
2023-04-15T18:13:16.593Z,24.70
2023-04-15T18:15:44.604Z,29.20
2023-04-15T18:18:12.796Z,25.55
2023-04-15T18:20:39.332Z,24.52
2023-04-15T18:23:05.873Z,26.08
2023-04-15T18:25:33.913Z,24.52
2023-04-15T18:28:00.548Z,25.48
2023-04-15T18:30:27.310Z,25.75
2023-04-15T18:32:53.842Z,23.80
2023-04-15T18:35:20.755Z,25.05
2023-04-15T18:37:47.291Z,26.50
2023-04-15T18:40:16.296Z,24.98
2023-04-15T18:42:42.933Z,25.67
2023-04-15T18:45:09.530Z,26.88
2023-04-15T18:47:36.127Z,27.17
2023-04-15T18:50:02.671Z,33.13
2023-04-15T18:52:29.825Z,33.72
2023-04-15T18:54:56.335Z,27.13
2023-04-15T18:57:25.877Z,31.02
2023-04-15T19:00:02.137Z,29.13
2023-04-15T19:02:28.859Z,30.48
2023-04-15T19:04:55.594Z,31.55
2023-04-15T19:07:23.071Z,27.63
2023-04-15T19:09:49.659Z,30.00
2023-04-15T19:12:16.196Z,28.70
2023-04-15T19:14:42.769Z,26.48
2023-04-15T19:17:09.629Z,27.60
2023-04-15T19:19:36.189Z,28.75
2023-04-15T19:22:03.513Z,34.13
2023-04-15T19:24:33.474Z,33.63
2023-04-15T19:27:00.021Z,25.27
2023-04-15T19:29:28.553Z,28.52
2023-04-15T19:31:55.279Z,30.50
2023-04-15T19:34:21.923Z,27.73
2023-04-15T19:36:48.401Z,30.58
2023-04-15T19:39:14.963Z,32.08
2023-04-15T19:41:41.427Z,33.33
2023-04-15T19:44:07.908Z,33.00
2023-04-15T19:46:34.453Z,26.88
2023-04-15T19:49:01.336Z,35.03
2023-04-15T19:51:28.641Z,51.13
2023-04-15T19:53:56.741Z,30.65
2023-04-15T19:56:24.088Z,35.00
2023-04-15T19:58:52.914Z,31.38
2023-04-15T20:01:20.356Z,33.33
2023-04-15T20:03:47.239Z,33.88
2023-04-15T20:06:14.896Z,33.05
2023-04-15T20:08:41.658Z,36.88
2023-04-15T20:11:12.053Z,34.05
2023-04-15T20:13:41.649Z,32.80
2023-04-15T20:16:08.206Z,33.92
2023-04-15T20:18:34.753Z,36.70
2023-04-15T20:21:01.551Z,36.60
2023-04-15T20:23:28.060Z,31.00
2023-04-15T20:25:54.707Z,33.85
2023-04-15T20:28:23.268Z,28.98
2023-04-15T20:30:49.864Z,31.42
2023-04-15T20:33:16.365Z,31.85
2023-04-15T20:35:42.858Z,30.95
2023-04-15T20:38:09.384Z,34.22
2023-04-15T20:40:36.376Z,31.25
2023-04-15T20:43:02.847Z,28.55
2023-04-15T20:45:29.286Z,31.42
2023-04-15T20:47:56.217Z,30.92
2023-04-15T20:50:22.804Z,25.85
2023-04-15T20:52:49.269Z,27.35
2023-04-15T20:55:15.777Z,29.27
2023-04-15T20:57:42.283Z,27.05
2023-04-15T21:00:12.281Z,33.17
2023-04-15T21:02:38.854Z,26.25
2023-04-15T21:05:05.793Z,28.50
2023-04-15T21:07:32.340Z,28.10
2023-04-15T21:09:58.893Z,25.83
2023-04-15T21:12:25.486Z,24.75
2023-04-15T21:14:52.327Z,27.25
2023-04-15T21:17:18.851Z,26.48
2023-04-15T21:19:45.346Z,24.65
2023-04-15T21:22:11.914Z,25.85
2023-04-15T21:24:38.447Z,26.20
2023-04-15T21:27:04.921Z,25.65
2023-04-15T21:29:31.414Z,27.13
2023-04-15T21:31:58.031Z,26.38
2023-04-15T21:34:24.565Z,25.75
2023-04-15T21:36:51.044Z,23.88
2023-04-15T21:39:17.510Z,23.50
2023-04-15T21:41:43.980Z,22.83
2023-04-15T21:44:12.112Z,22.00
2023-04-15T21:46:39.672Z,26.00
2023-04-15T21:49:07.084Z,23.98
2023-04-15T21:51:33.909Z,24.05
2023-04-15T21:54:00.503Z,23.02
2023-04-15T21:56:27.014Z,25.85
2023-04-15T21:58:56.932Z,24.15
2023-04-15T22:01:23.820Z,23.95
2023-04-15T22:03:50.638Z,24.27
2023-04-15T22:06:17.210Z,27.58
2023-04-15T22:08:55.128Z,24.67
2023-04-15T22:11:27.476Z,24.08
2023-04-15T22:13:54.663Z,26.00
2023-04-15T22:16:21.483Z,23.67
2023-04-15T22:18:48.253Z,24.52
2023-04-15T22:21:14.864Z,24.35
2023-04-15T22:23:41.406Z,23.85
2023-04-15T22:26:07.948Z,23.00
2023-04-15T22:28:34.436Z,22.83
2023-04-15T22:31:01.068Z,22.38
2023-04-15T22:33:27.679Z,23.90
2023-04-15T22:35:54.132Z,22.67
2023-04-15T22:38:20.706Z,23.65
2023-04-15T22:40:47.314Z,22.95
2023-04-15T22:43:13.758Z,22.58
2023-04-15T22:45:40.247Z,22.38
2023-04-15T22:48:06.964Z,23.55
2023-04-15T22:50:33.514Z,25.23
2023-04-15T22:52:59.962Z,22.90
2023-04-15T22:55:26.426Z,24.10
2023-04-15T22:57:52.907Z,24.35
2023-04-15T23:00:19.375Z,23.50
2023-04-15T23:02:46.106Z,25.70
2023-04-15T23:05:13.470Z,22.15
2023-04-15T23:07:40.145Z,24.23
2023-04-15T23:10:07.957Z,24.38
2023-04-15T23:12:34.563Z,23.40
2023-04-15T23:15:01.084Z,23.50
2023-04-15T23:17:27.701Z,27.38
2023-04-15T23:19:54.199Z,24.90
2023-04-15T23:22:20.695Z,24.80
2023-04-15T23:24:47.177Z,25.48
2023-04-15T23:27:13.637Z,27.33
2023-04-15T23:29:40.126Z,26.40
2023-04-15T23:32:06.717Z,29.15
2023-04-15T23:34:33.180Z,28.90
2023-04-15T23:36:59.622Z,29.83
2023-04-15T23:39:26.454Z,28.90
2023-04-15T23:41:53.178Z,27.20
2023-04-15T23:44:20.305Z,28.50
2023-04-15T23:46:46.952Z,29.23
2023-04-15T23:49:13.547Z,29.98
2023-04-15T23:51:40.011Z,28.42
2023-04-15T23:54:06.467Z,29.52
2023-04-15T23:56:32.916Z,28.10
2023-04-15T23:58:59.372Z,30.08
